PWSweather.com
Personal Weather Stations
Station Observations
KTXNEWBR92
New Braunfels, TX

New Braunfels, TX

Lat: 29.722, Lon: -98.17

Elevation: 850

Station Type:

High Low Average
Temperature 68.9°F20.5°C 29.1°F-1.6°C 49.6°F9.8°C
Dew Point 47.8°F8.8°C 26.2°F-3.2°C 37.9°F3.3°C
Winds 12.8 mph 20.6 kmh Calm Calm 2.0 mph ESE3.2 kmh ESE
Wind Gusts 15.0 mph24.1 kmh -- 3.0 mph4.8 kmh
Humidity 93% 34% 67%
Pressure 29.98 in1015.2 mb 29.71 in1006.1 mb -
Precipitation 0.00 in0.0 mm - -
Hour Temp Dew Point Humidity Winds Wind Gusts Pressure Precip Precip Rate Daily Precip Total
12:04 AM 43.2°F6.2°C 24.8°F-4.0°C 48% Calm Calm -- 29.97 in1014.9 mb 0.00 in0.0 mm 0.00 in0.0 mm 0.00 in0.0 mm
12:09 AM 43.3°F6.3°C 25.0°F-3.9°C 48% 1.8 mph E2.9 kmh E 2.5 mph4.0 kmh 29.98 in1015.2 mb 0.00 in0.0 mm 0.00 in0.0 mm 0.00 in0.0 mm
12:14 AM 43.5°F6.4°C 25.2°F-3.8°C 48% 2.7 mph SE4.3 kmh SE 4.9 mph7.9 kmh 29.98 in1015.2 mb 0.00 in0.0 mm 0.00 in0.0 mm 0.00 in0.0 mm
12:19 AM 43.7°F6.5°C 25.3°F-3.7°C 48% 1.1 mph E1.8 kmh E 2.5 mph4.0 kmh 29.98 in1015.2 mb 0.00 in0.0 mm 0.00 in0.0 mm 0.00 in0.0 mm
12:24 AM 43.9°F6.6°C 25.5°F-3.6°C 48% 1.1 mph SSE1.8 kmh SSE 2.5 mph4.0 kmh 29.98 in1015.2 mb 0.00 in0.0 mm 0.00 in0.0 mm 0.00 in0.0 mm
12:29 AM 43.9°F6.6°C 26.1°F-3.3°C 49% Calm Calm -- 29.98 in1015.2 mb 0.00 in0.0 mm 0.00 in0.0 mm 0.00 in0.0 mm
12:34 AM 43.7°F6.5°C 25.9°F-3.4°C 49% 0.4 mph E0.6 kmh E 2.5 mph4.0 kmh 29.98 in1015.2 mb 0.00 in0.0 mm 0.00 in0.0 mm 0.00 in0.0 mm
12:39 AM 43.7°F6.5°C 26.2°F-3.2°C 50% 0.9 mph E1.4 kmh E 2.5 mph4.0 kmh 29.98 in1015.2 mb 0.00 in0.0 mm 0.00 in0.0 mm 0.00 in0.0 mm
12:44 AM 43.3°F6.3°C 27.0°F-2.8°C 52% Calm Calm -- 29.98 in1015.2 mb 0.00 in0.0 mm 0.00 in0.0 mm 0.00 in0.0 mm
12:49 AM 43.2°F6.2°C 27.1°F-2.7°C 53% Calm Calm -- 29.98 in1015.2 mb 0.00 in0.0 mm 0.00 in0.0 mm 0.00 in0.0 mm
12:54 AM 42.8°F6.0°C 27.3°F-2.6°C 54% Calm Calm -- 29.98 in1015.2 mb 0.00 in0.0 mm 0.00 in0.0 mm 0.00 in0.0 mm
01:04 AM 42.1°F5.6°C 27.1°F-2.7°C 55% Calm Calm -- 29.98 in1015.2 mb 0.00 in0.0 mm 0.00 in0.0 mm 0.00 in0.0 mm
01:09 AM 40.6°F4.8°C 26.2°F-3.2°C 56% Calm Calm -- 29.98 in1015.2 mb 0.00 in0.0 mm 0.00 in0.0 mm 0.00 in0.0 mm
01:14 AM 40.6°F4.8°C 26.6°F-3.0°C 57% Calm Calm -- 29.97 in1014.9 mb 0.00 in0.0 mm 0.00 in0.0 mm 0.00 in0.0 mm
01:19 AM 40.5°F4.7°C 26.8°F-2.9°C 58% Calm Calm -- 29.98 in1015.2 mb 0.00 in0.0 mm 0.00 in0.0 mm 0.00 in0.0 mm
01:24 AM 40.3°F4.6°C 26.8°F-2.9°C 58% Calm Calm -- 29.98 in1015.2 mb 0.00 in0.0 mm 0.00 in0.0 mm 0.00 in0.0 mm
01:29 AM 40.1°F4.5°C 27.0°F-2.8°C 59% Calm Calm -- 29.97 in1014.9 mb 0.00 in0.0 mm 0.00 in0.0 mm 0.00 in0.0 mm
01:34 AM 39.7°F4.3°C 27.0°F-2.8°C 60% Calm Calm -- 29.97 in1014.9 mb 0.00 in0.0 mm 0.00 in0.0 mm 0.00 in0.0 mm
01:39 AM 39.6°F4.2°C 27.3°F-2.6°C 61% Calm Calm -- 29.97 in1014.9 mb 0.00 in0.0 mm 0.00 in0.0 mm 0.00 in0.0 mm
01:44 AM 39.2°F4.0°C 27.3°F-2.6°C 62% Calm Calm -- 29.96 in1014.6 mb 0.00 in0.0 mm 0.00 in0.0 mm 0.00 in0.0 mm
01:49 AM 39.0°F3.9°C 27.1°F-2.7°C 62% Calm Calm -- 29.97 in1014.9 mb 0.00 in0.0 mm 0.00 in0.0 mm 0.00 in0.0 mm
01:54 AM 38.8°F3.8°C 27.3°F-2.6°C 63% 1.3 mph S2.1 kmh S 2.5 mph4.0 kmh 29.96 in1014.6 mb 0.00 in0.0 mm 0.00 in0.0 mm 0.00 in0.0 mm
01:59 AM 38.7°F3.7°C 27.1°F-2.7°C 63% 0.4 mph ESE0.6 kmh ESE 2.5 mph4.0 kmh 29.97 in1014.9 mb 0.00 in0.0 mm 0.00 in0.0 mm 0.00 in0.0 mm
02:04 AM 38.7°F3.7°C 26.8°F-2.9°C 62% Calm Calm -- 29.96 in1014.6 mb 0.00 in0.0 mm 0.00 in0.0 mm 0.00 in0.0 mm
02:09 AM 38.7°F3.7°C 26.8°F-2.9°C 62% 0.2 mph ESE0.3 kmh ESE 2.5 mph4.0 kmh 29.96 in1014.6 mb 0.00 in0.0 mm 0.00 in0.0 mm 0.00 in0.0 mm
02:14 AM 38.7°F3.7°C 27.1°F-2.7°C 63% Calm Calm -- 29.96 in1014.6 mb 0.00 in0.0 mm 0.00 in0.0 mm 0.00 in0.0 mm
02:19 AM 38.8°F3.8°C 27.3°F-2.6°C 63% Calm Calm -- 29.96 in1014.6 mb 0.00 in0.0 mm 0.00 in0.0 mm 0.00 in0.0 mm
02:24 AM 38.8°F3.8°C 27.7°F-2.4°C 64% Calm Calm -- 29.96 in1014.6 mb 0.00 in0.0 mm 0.00 in0.0 mm 0.00 in0.0 mm
02:29 AM 38.8°F3.8°C 27.7°F-2.4°C 64% Calm Calm -- 29.96 in1014.6 mb 0.00 in0.0 mm 0.00 in0.0 mm 0.00 in0.0 mm
02:34 AM 38.7°F3.7°C 27.9°F-2.3°C 65% Calm Calm -- 29.95 in1014.2 mb 0.00 in0.0 mm 0.00 in0.0 mm 0.00 in0.0 mm
02:39 AM 38.5°F3.6°C 28.0°F-2.2°C 66% Calm Calm -- 29.95 in1014.2 mb 0.00 in0.0 mm 0.00 in0.0 mm 0.00 in0.0 mm
02:44 AM 38.3°F3.5°C 28.0°F-2.2°C 66% Calm Calm -- 29.96 in1014.6 mb 0.00 in0.0 mm 0.00 in0.0 mm 0.00 in0.0 mm
02:49 AM 38.3°F3.5°C 28.4°F-2.0°C 67% Calm Calm -- 29.96 in1014.6 mb 0.00 in0.0 mm 0.00 in0.0 mm 0.00 in0.0 mm
02:54 AM 38.1°F3.4°C 28.2°F-2.1°C 67% Calm Calm -- 29.96 in1014.6 mb 0.00 in0.0 mm 0.00 in0.0 mm 0.00 in0.0 mm
02:59 AM 37.9°F3.3°C 28.0°F-2.2°C 67% Calm Calm -- 29.96 in1014.6 mb 0.00 in0.0 mm 0.00 in0.0 mm 0.00 in0.0 mm
03:04 AM 37.8°F3.2°C 28.2°F-2.1°C 68% Calm Calm -- 29.96 in1014.6 mb 0.00 in0.0 mm 0.00 in0.0 mm 0.00 in0.0 mm
03:09 AM 37.6°F3.1°C 28.4°F-2.0°C 69% Calm Calm -- 29.96 in1014.6 mb 0.00 in0.0 mm 0.00 in0.0 mm 0.00 in0.0 mm
03:14 AM 37.2°F2.9°C 28.4°F-2.0°C 70% Calm Calm -- 29.96 in1014.6 mb 0.00 in0.0 mm 0.00 in0.0 mm 0.00 in0.0 mm
03:19 AM 36.7°F2.6°C 28.6°F-1.9°C 72% Calm Calm -- 29.96 in1014.6 mb 0.00 in0.0 mm 0.00 in0.0 mm 0.00 in0.0 mm
03:24 AM 36.3°F2.4°C 28.8°F-1.8°C 74% Calm Calm -- 29.96 in1014.6 mb 0.00 in0.0 mm 0.00 in0.0 mm 0.00 in0.0 mm
03:29 AM 36.0°F2.2°C 28.4°F-2.0°C 74% Calm Calm -- 29.96 in1014.6 mb 0.00 in0.0 mm 0.00 in0.0 mm 0.00 in0.0 mm
03:34 AM 35.6°F2.0°C 28.4°F-2.0°C 75% Calm Calm -- 29.96 in1014.6 mb 0.00 in0.0 mm 0.00 in0.0 mm 0.00 in0.0 mm
03:39 AM 35.2°F1.8°C 28.4°F-2.0°C 76% Calm Calm -- 29.96 in1014.6 mb 0.00 in0.0 mm 0.00 in0.0 mm 0.00 in0.0 mm
03:44 AM 35.2°F1.8°C 28.4°F-2.0°C 76% Calm Calm -- 29.96 in1014.6 mb 0.00 in0.0 mm 0.00 in0.0 mm 0.00 in0.0 mm
03:49 AM 35.2°F1.8°C 28.4°F-2.0°C 76% Calm Calm -- 29.96 in1014.6 mb 0.00 in0.0 mm 0.00 in0.0 mm 0.00 in0.0 mm
03:54 AM 35.2°F1.8°C 28.8°F-1.8°C 77% Calm Calm -- 29.96 in1014.6 mb 0.00 in0.0 mm 0.00 in0.0 mm 0.00 in0.0 mm
03:59 AM 35.2°F1.8°C 28.8°F-1.8°C 77% Calm Calm -- 29.95 in1014.2 mb 0.00 in0.0 mm 0.00 in0.0 mm 0.00 in0.0 mm
04:04 AM 35.1°F1.7°C 28.6°F-1.9°C 77% Calm Calm -- 29.95 in1014.2 mb 0.00 in0.0 mm 0.00 in0.0 mm 0.00 in0.0 mm
04:09 AM 34.9°F1.6°C 28.8°F-1.8°C 78% Calm Calm -- 29.94 in1013.9 mb 0.00 in0.0 mm 0.00 in0.0 mm 0.00 in0.0 mm
04:14 AM 34.7°F1.5°C 28.6°F-1.9°C 78% Calm Calm -- 29.94 in1013.9 mb 0.00 in0.0 mm 0.00 in0.0 mm 0.00 in0.0 mm
04:19 AM 34.5°F1.4°C 28.9°F-1.7°C 80% Calm Calm -- 29.94 in1013.9 mb 0.00 in0.0 mm 0.00 in0.0 mm 0.00 in0.0 mm
04:24 AM 34.3°F1.3°C 28.8°F-1.8°C 80% Calm Calm -- 29.94 in1013.9 mb 0.00 in0.0 mm 0.00 in0.0 mm 0.00 in0.0 mm
04:29 AM 34.2°F1.2°C 28.6°F-1.9°C 80% Calm Calm -- 29.93 in1013.5 mb 0.00 in0.0 mm 0.00 in0.0 mm 0.00 in0.0 mm
04:34 AM 34.0°F1.1°C 28.8°F-1.8°C 81% Calm Calm -- 29.93 in1013.5 mb 0.00 in0.0 mm 0.00 in0.0 mm 0.00 in0.0 mm
04:39 AM 33.8°F1.0°C 28.6°F-1.9°C 81% Calm Calm -- 29.93 in1013.5 mb 0.00 in0.0 mm 0.00 in0.0 mm 0.00 in0.0 mm
04:44 AM 33.6°F0.9°C 28.8°F-1.8°C 82% Calm Calm -- 29.92 in1013.2 mb 0.00 in0.0 mm 0.00 in0.0 mm 0.00 in0.0 mm
04:49 AM 33.4°F0.8°C 28.6°F-1.9°C 82% Calm Calm -- 29.93 in1013.5 mb 0.00 in0.0 mm 0.00 in0.0 mm 0.00 in0.0 mm
04:54 AM 33.3°F0.7°C 28.6°F-1.9°C 83% Calm Calm -- 29.93 in1013.5 mb 0.00 in0.0 mm 0.00 in0.0 mm 0.00 in0.0 mm
04:59 AM 32.9°F0.5°C 28.6°F-1.9°C 84% Calm Calm -- 29.93 in1013.5 mb 0.00 in0.0 mm 0.00 in0.0 mm 0.00 in0.0 mm
05:04 AM 32.7°F0.4°C 28.4°F-2.0°C 84% Calm Calm -- 29.94 in1013.9 mb 0.00 in0.0 mm 0.00 in0.0 mm 0.00 in0.0 mm
05:09 AM 32.7°F0.4°C 28.4°F-2.0°C 84% Calm Calm -- 29.93 in1013.5 mb 0.00 in0.0 mm 0.00 in0.0 mm 0.00 in0.0 mm
05:14 AM 32.5°F0.3°C 28.6°F-1.9°C 85% Calm Calm -- 29.94 in1013.9 mb 0.00 in0.0 mm 0.00 in0.0 mm 0.00 in0.0 mm
05:19 AM 32.4°F0.2°C 28.6°F-1.9°C 86% Calm Calm -- 29.94 in1013.9 mb 0.00 in0.0 mm 0.00 in0.0 mm 0.00 in0.0 mm
05:24 AM 32.0°F0.0°C 28.6°F-1.9°C 87% Calm Calm -- 29.94 in1013.9 mb 0.00 in0.0 mm 0.00 in0.0 mm 0.00 in0.0 mm
05:29 AM 32.0°F0.0°C 28.8°F-1.8°C 88% Calm Calm -- 29.94 in1013.9 mb 0.00 in0.0 mm 0.00 in0.0 mm 0.00 in0.0 mm
05:34 AM 32.0°F0.0°C 28.8°F-1.8°C 88% Calm Calm -- 29.93 in1013.5 mb 0.00 in0.0 mm 0.00 in0.0 mm 0.00 in0.0 mm
05:39 AM 31.8°F-0.1°C 28.8°F-1.8°C 88% Calm Calm -- 29.93 in1013.5 mb 0.00 in0.0 mm 0.00 in0.0 mm 0.00 in0.0 mm
05:44 AM 31.6°F-0.2°C 28.8°F-1.8°C 89% Calm Calm -- 29.93 in1013.5 mb 0.00 in0.0 mm 0.00 in0.0 mm 0.00 in0.0 mm
05:49 AM 31.5°F-0.3°C 28.6°F-1.9°C 89% Calm Calm -- 29.93 in1013.5 mb 0.00 in0.0 mm 0.00 in0.0 mm 0.00 in0.0 mm
05:54 AM 31.5°F-0.3°C 28.6°F-1.9°C 89% Calm Calm -- 29.92 in1013.2 mb 0.00 in0.0 mm 0.00 in0.0 mm 0.00 in0.0 mm
05:59 AM 31.3°F-0.4°C 28.4°F-2.0°C 89% Calm Calm -- 29.92 in1013.2 mb 0.00 in0.0 mm 0.00 in0.0 mm 0.00 in0.0 mm
06:04 AM 31.1°F-0.5°C 28.6°F-1.9°C 90% Calm Calm -- 29.92 in1013.2 mb 0.00 in0.0 mm 0.00 in0.0 mm 0.00 in0.0 mm
06:09 AM 31.1°F-0.5°C 28.6°F-1.9°C 90% Calm Calm -- 29.92 in1013.2 mb 0.00 in0.0 mm 0.00 in0.0 mm 0.00 in0.0 mm
06:14 AM 30.9°F-0.6°C 28.6°F-1.9°C 91% Calm Calm -- 29.91 in1012.9 mb 0.00 in0.0 mm 0.00 in0.0 mm 0.00 in0.0 mm
06:19 AM 30.9°F-0.6°C 28.9°F-1.7°C 92% Calm Calm -- 29.92 in1013.2 mb 0.00 in0.0 mm 0.00 in0.0 mm 0.00 in0.0 mm
06:24 AM 31.1°F-0.5°C 29.1°F-1.6°C 92% Calm Calm -- 29.91 in1012.9 mb 0.00 in0.0 mm 0.00 in0.0 mm 0.00 in0.0 mm
06:29 AM 30.9°F-0.6°C 28.9°F-1.7°C 92% Calm Calm -- 29.91 in1012.9 mb 0.00 in0.0 mm 0.00 in0.0 mm 0.00 in0.0 mm
06:34 AM 30.9°F-0.6°C 28.9°F-1.7°C 92% Calm Calm -- 29.91 in1012.9 mb 0.00 in0.0 mm 0.00 in0.0 mm 0.00 in0.0 mm
06:39 AM 30.9°F-0.6°C 28.9°F-1.7°C 92% Calm Calm -- 29.91 in1012.9 mb 0.00 in0.0 mm 0.00 in0.0 mm 0.00 in0.0 mm
06:44 AM 30.9°F-0.6°C 28.9°F-1.7°C 92% Calm Calm -- 29.91 in1012.9 mb 0.00 in0.0 mm 0.00 in0.0 mm 0.00 in0.0 mm
06:49 AM 30.9°F-0.6°C 28.9°F-1.7°C 92% Calm Calm -- 29.91 in1012.9 mb 0.00 in0.0 mm 0.00 in0.0 mm 0.00 in0.0 mm
06:54 AM 30.7°F-0.7°C 28.8°F-1.8°C 92% Calm Calm -- 29.91 in1012.9 mb 0.00 in0.0 mm 0.00 in0.0 mm 0.00 in0.0 mm
06:59 AM 30.7°F-0.7°C 28.8°F-1.8°C 92% Calm Calm -- 29.91 in1012.9 mb 0.00 in0.0 mm 0.00 in0.0 mm 0.00 in0.0 mm
07:04 AM 30.7°F-0.7°C 28.8°F-1.8°C 92% Calm Calm -- 29.91 in1012.9 mb 0.00 in0.0 mm 0.00 in0.0 mm 0.00 in0.0 mm
07:09 AM 30.7°F-0.7°C 28.8°F-1.8°C 92% Calm Calm -- 29.91 in1012.9 mb 0.00 in0.0 mm 0.00 in0.0 mm 0.00 in0.0 mm
07:14 AM 30.7°F-0.7°C 28.8°F-1.8°C 92% Calm Calm -- 29.92 in1013.2 mb 0.00 in0.0 mm 0.00 in0.0 mm 0.00 in0.0 mm
07:19 AM 30.6°F-0.8°C 28.6°F-1.9°C 92% Calm Calm -- 29.92 in1013.2 mb 0.00 in0.0 mm 0.00 in0.0 mm 0.00 in0.0 mm
07:24 AM 30.4°F-0.9°C 28.4°F-2.0°C 92% Calm Calm -- 29.92 in1013.2 mb 0.00 in0.0 mm 0.00 in0.0 mm 0.00 in0.0 mm
07:29 AM 30.2°F-1.0°C 28.2°F-2.1°C 92% Calm Calm -- 29.92 in1013.2 mb 0.00 in0.0 mm 0.00 in0.0 mm 0.00 in0.0 mm
07:34 AM 30.0°F-1.1°C 28.0°F-2.2°C 92% Calm Calm -- 29.93 in1013.5 mb 0.00 in0.0 mm 0.00 in0.0 mm 0.00 in0.0 mm
07:39 AM 30.0°F-1.1°C 28.0°F-2.2°C 92% Calm Calm -- 29.93 in1013.5 mb 0.00 in0.0 mm 0.00 in0.0 mm 0.00 in0.0 mm
07:44 AM 29.8°F-1.2°C 27.9°F-2.3°C 92% Calm Calm -- 29.94 in1013.9 mb 0.00 in0.0 mm 0.00 in0.0 mm 0.00 in0.0 mm
07:49 AM 29.7°F-1.3°C 27.7°F-2.4°C 92% Calm Calm -- 29.94 in1013.9 mb 0.00 in0.0 mm 0.00 in0.0 mm 0.00 in0.0 mm
07:54 AM 29.7°F-1.3°C 27.7°F-2.4°C 92% Calm Calm -- 29.94 in1013.9 mb 0.00 in0.0 mm 0.00 in0.0 mm 0.00 in0.0 mm
07:59 AM 29.5°F-1.4°C 27.5°F-2.5°C 92% Calm Calm -- 29.95 in1014.2 mb 0.00 in0.0 mm 0.00 in0.0 mm 0.00 in0.0 mm
08:04 AM 29.5°F-1.4°C 27.5°F-2.5°C 92% Calm Calm -- 29.95 in1014.2 mb 0.00 in0.0 mm 0.00 in0.0 mm 0.00 in0.0 mm
08:09 AM 29.3°F-1.5°C 27.3°F-2.6°C 92% Calm Calm -- 29.94 in1013.9 mb 0.00 in0.0 mm 0.00 in0.0 mm 0.00 in0.0 mm
08:14 AM 29.3°F-1.5°C 27.3°F-2.6°C 92% Calm Calm -- 29.95 in1014.2 mb 0.00 in0.0 mm 0.00 in0.0 mm 0.00 in0.0 mm
08:19 AM 29.1°F-1.6°C 27.1°F-2.7°C 92% Calm Calm -- 29.95 in1014.2 mb 0.00 in0.0 mm 0.00 in0.0 mm 0.00 in0.0 mm
08:24 AM 29.1°F-1.6°C 27.1°F-2.7°C 92% Calm Calm -- 29.95 in1014.2 mb 0.00 in0.0 mm 0.00 in0.0 mm 0.00 in0.0 mm
08:29 AM 29.1°F-1.6°C 27.1°F-2.7°C 92% Calm Calm -- 29.95 in1014.2 mb 0.00 in0.0 mm 0.00 in0.0 mm 0.00 in0.0 mm
08:34 AM 29.1°F-1.6°C 27.1°F-2.7°C 92% Calm Calm -- 29.95 in1014.2 mb 0.00 in0.0 mm 0.00 in0.0 mm 0.00 in0.0 mm
08:39 AM 29.5°F-1.4°C 27.7°F-2.4°C 93% Calm Calm -- 29.95 in1014.2 mb 0.00 in0.0 mm 0.00 in0.0 mm 0.00 in0.0 mm
08:44 AM 29.8°F-1.2°C 28.0°F-2.2°C 93% Calm Calm -- 29.94 in1013.9 mb 0.00 in0.0 mm 0.00 in0.0 mm 0.00 in0.0 mm
08:49 AM 30.0°F-1.1°C 28.2°F-2.1°C 93% Calm Calm -- 29.94 in1013.9 mb 0.00 in0.0 mm 0.00 in0.0 mm 0.00 in0.0 mm
08:54 AM 30.6°F-0.8°C 28.8°F-1.8°C 93% Calm Calm -- 29.95 in1014.2 mb 0.00 in0.0 mm 0.00 in0.0 mm 0.00 in0.0 mm
08:59 AM 30.9°F-0.6°C 29.1°F-1.6°C 93% Calm Calm -- 29.94 in1013.9 mb 0.00 in0.0 mm 0.00 in0.0 mm 0.00 in0.0 mm
09:04 AM 31.5°F-0.3°C 29.7°F-1.3°C 93% Calm Calm -- 29.94 in1013.9 mb 0.00 in0.0 mm 0.00 in0.0 mm 0.00 in0.0 mm
09:09 AM 32.0°F0.0°C 30.2°F-1.0°C 93% Calm Calm -- 29.94 in1013.9 mb 0.00 in0.0 mm 0.00 in0.0 mm 0.00 in0.0 mm
09:14 AM 32.7°F0.4°C 30.7°F-0.7°C 92% Calm Calm -- 29.93 in1013.5 mb 0.00 in0.0 mm 0.00 in0.0 mm 0.00 in0.0 mm
09:19 AM 33.6°F0.9°C 31.5°F-0.3°C 92% Calm Calm -- 29.94 in1013.9 mb 0.00 in0.0 mm 0.00 in0.0 mm 0.00 in0.0 mm
09:24 AM 34.9°F1.6°C 32.7°F0.4°C 92% Calm Calm -- 29.93 in1013.5 mb 0.00 in0.0 mm 0.00 in0.0 mm 0.00 in0.0 mm
09:29 AM 35.8°F2.1°C 33.6°F0.9°C 92% Calm Calm -- 29.93 in1013.5 mb 0.00 in0.0 mm 0.00 in0.0 mm 0.00 in0.0 mm
09:34 AM 36.9°F2.7°C 34.7°F1.5°C 92% Calm Calm -- 29.94 in1013.9 mb 0.00 in0.0 mm 0.00 in0.0 mm 0.00 in0.0 mm
09:39 AM 37.8°F3.2°C 35.6°F2.0°C 92% Calm Calm -- 29.93 in1013.5 mb 0.00 in0.0 mm 0.00 in0.0 mm 0.00 in0.0 mm
09:44 AM 38.8°F3.8°C 36.7°F2.6°C 92% Calm Calm -- 29.93 in1013.5 mb 0.00 in0.0 mm 0.00 in0.0 mm 0.00 in0.0 mm
09:49 AM 39.9°F4.4°C 37.0°F2.8°C 89% Calm Calm -- 29.94 in1013.9 mb 0.00 in0.0 mm 0.00 in0.0 mm 0.00 in0.0 mm
09:54 AM 41.2°F5.1°C 35.2°F1.8°C 79% 1.8 mph E2.9 kmh E 2.5 mph4.0 kmh 29.94 in1013.9 mb 0.00 in0.0 mm 0.00 in0.0 mm 0.00 in0.0 mm
09:59 AM 42.4°F5.8°C 36.3°F2.4°C 79% Calm Calm -- 29.94 in1013.9 mb 0.00 in0.0 mm 0.00 in0.0 mm 0.00 in0.0 mm
10:04 AM 43.7°F6.5°C 36.7°F2.6°C 76% Calm Calm -- 29.94 in1013.9 mb 0.00 in0.0 mm 0.00 in0.0 mm 0.00 in0.0 mm
10:09 AM 44.6°F7.0°C 37.6°F3.1°C 76% 0.2 mph E0.3 kmh E 2.5 mph4.0 kmh 29.94 in1013.9 mb 0.00 in0.0 mm 0.00 in0.0 mm 0.00 in0.0 mm
10:14 AM 45.3°F7.4°C 38.5°F3.6°C 77% 2.9 mph WSW4.7 kmh WSW 4.9 mph7.9 kmh 29.94 in1013.9 mb 0.00 in0.0 mm 0.00 in0.0 mm 0.00 in0.0 mm
10:19 AM 45.7°F7.6°C 38.8°F3.8°C 77% 0.2 mph ESE0.3 kmh ESE 2.5 mph4.0 kmh 29.94 in1013.9 mb 0.00 in0.0 mm 0.00 in0.0 mm 0.00 in0.0 mm
10:24 AM 45.9°F7.7°C 39.4°F4.1°C 78% 0.4 mph E0.6 kmh E 2.5 mph4.0 kmh 29.94 in1013.9 mb 0.00 in0.0 mm 0.00 in0.0 mm 0.00 in0.0 mm
10:29 AM 45.9°F7.7°C 39.7°F4.3°C 79% Calm Calm -- 29.94 in1013.9 mb 0.00 in0.0 mm 0.00 in0.0 mm 0.00 in0.0 mm
10:34 AM 45.7°F7.6°C 39.2°F4.0°C 78% 2.0 mph ESE3.2 kmh ESE 4.9 mph7.9 kmh 29.94 in1013.9 mb 0.00 in0.0 mm 0.00 in0.0 mm 0.00 in0.0 mm
10:39 AM 45.5°F7.5°C 39.4°F4.1°C 79% Calm Calm -- 29.95 in1014.2 mb 0.00 in0.0 mm 0.00 in0.0 mm 0.00 in0.0 mm
10:44 AM 45.5°F7.5°C 39.0°F3.9°C 78% 1.8 mph ESE2.9 kmh ESE 2.5 mph4.0 kmh 29.94 in1013.9 mb 0.00 in0.0 mm 0.00 in0.0 mm 0.00 in0.0 mm
10:49 AM 45.5°F7.5°C 39.0°F3.9°C 78% 2.0 mph E3.2 kmh E 2.5 mph4.0 kmh 29.95 in1014.2 mb 0.00 in0.0 mm 0.00 in0.0 mm 0.00 in0.0 mm
10:54 AM 45.7°F7.6°C 39.2°F4.0°C 78% 0.4 mph SE0.6 kmh SE 2.5 mph4.0 kmh 29.94 in1013.9 mb 0.00 in0.0 mm 0.00 in0.0 mm 0.00 in0.0 mm
10:59 AM 46.0°F7.8°C 39.6°F4.2°C 78% 1.3 mph S2.1 kmh S 2.5 mph4.0 kmh 29.95 in1014.2 mb 0.00 in0.0 mm 0.00 in0.0 mm 0.00 in0.0 mm
11:04 AM 46.2°F7.9°C 39.4°F4.1°C 77% 0.9 mph E1.4 kmh E 2.5 mph4.0 kmh 29.95 in1014.2 mb 0.00 in0.0 mm 0.00 in0.0 mm 0.00 in0.0 mm
11:09 AM 46.8°F8.2°C 39.6°F4.2°C 76% 1.8 mph E2.9 kmh E 2.5 mph4.0 kmh 29.94 in1013.9 mb 0.00 in0.0 mm 0.00 in0.0 mm 0.00 in0.0 mm
11:14 AM 47.3°F8.5°C 40.5°F4.7°C 77% Calm Calm -- 29.94 in1013.9 mb 0.00 in0.0 mm 0.00 in0.0 mm 0.00 in0.0 mm
11:19 AM 47.8°F8.8°C 40.6°F4.8°C 76% 0.9 mph SSE1.4 kmh SSE 2.5 mph4.0 kmh 29.94 in1013.9 mb 0.00 in0.0 mm 0.00 in0.0 mm 0.00 in0.0 mm
11:24 AM 48.4°F9.1°C 41.2°F5.1°C 76% Calm Calm -- 29.94 in1013.9 mb 0.00 in0.0 mm 0.00 in0.0 mm 0.00 in0.0 mm
11:29 AM 48.9°F9.4°C 41.4°F5.2°C 75% 3.6 mph S5.8 kmh S 4.9 mph7.9 kmh 29.94 in1013.9 mb 0.00 in0.0 mm 0.00 in0.0 mm 0.00 in0.0 mm
11:34 AM 49.5°F9.7°C 41.9°F5.5°C 75% Calm Calm -- 29.93 in1013.5 mb 0.00 in0.0 mm 0.00 in0.0 mm 0.00 in0.0 mm
11:39 AM 49.8°F9.9°C 41.9°F5.5°C 74% 2.5 mph SW4.0 kmh SW 2.5 mph4.0 kmh 29.93 in1013.5 mb 0.00 in0.0 mm 0.00 in0.0 mm 0.00 in0.0 mm
11:44 AM 50.4°F10.2°C 42.8°F6.0°C 75% Calm Calm -- 29.93 in1013.5 mb 0.00 in0.0 mm 0.00 in0.0 mm 0.00 in0.0 mm
11:49 AM 50.7°F10.4°C 42.8°F6.0°C 74% 0.2 mph E0.3 kmh E 2.5 mph4.0 kmh 29.93 in1013.5 mb 0.00 in0.0 mm 0.00 in0.0 mm 0.00 in0.0 mm
11:54 AM 51.1°F10.6°C 43.2°F6.2°C 74% 0.9 mph ESE1.4 kmh ESE 2.5 mph4.0 kmh 29.92 in1013.2 mb 0.00 in0.0 mm 0.00 in0.0 mm 0.00 in0.0 mm
11:59 AM 51.3°F10.7°C 43.3°F6.3°C 74% Calm Calm -- 29.92 in1013.2 mb 0.00 in0.0 mm 0.00 in0.0 mm 0.00 in0.0 mm
12:04 PM 51.6°F10.9°C 43.7°F6.5°C 74% Calm Calm -- 29.92 in1013.2 mb 0.00 in0.0 mm 0.00 in0.0 mm 0.00 in0.0 mm
12:09 PM 51.8°F11.0°C 43.9°F6.6°C 74% Calm Calm -- 29.93 in1013.5 mb 0.00 in0.0 mm 0.00 in0.0 mm 0.00 in0.0 mm
12:14 PM 52.2°F11.2°C 43.9°F6.6°C 73% 1.8 mph SW2.9 kmh SW 2.5 mph4.0 kmh 29.92 in1013.2 mb 0.00 in0.0 mm 0.00 in0.0 mm 0.00 in0.0 mm
12:19 PM 52.5°F11.4°C 44.1°F6.7°C 73% 1.3 mph S2.1 kmh S 2.5 mph4.0 kmh 29.92 in1013.2 mb 0.00 in0.0 mm 0.00 in0.0 mm 0.00 in0.0 mm
12:24 PM 53.1°F11.7°C 44.2°F6.8°C 72% 0.4 mph ESE0.6 kmh ESE 2.5 mph4.0 kmh 29.91 in1012.9 mb 0.00 in0.0 mm 0.00 in0.0 mm 0.00 in0.0 mm
12:29 PM 53.6°F12.0°C 44.4°F6.9°C 71% 2.0 mph ENE3.2 kmh ENE 4.9 mph7.9 kmh 29.91 in1012.9 mb 0.00 in0.0 mm 0.00 in0.0 mm 0.00 in0.0 mm
12:34 PM 54.3°F12.4°C 44.8°F7.1°C 70% 0.9 mph S1.4 kmh S 2.5 mph4.0 kmh 29.90 in1012.5 mb 0.00 in0.0 mm 0.00 in0.0 mm 0.00 in0.0 mm
12:39 PM 55.2°F12.9°C 45.0°F7.2°C 68% 4.9 mph E7.9 kmh E 7.4 mph11.9 kmh 29.90 in1012.5 mb 0.00 in0.0 mm 0.00 in0.0 mm 0.00 in0.0 mm
12:44 PM 56.1°F13.4°C 44.6°F7.0°C 65% 0.4 mph E0.6 kmh E 2.5 mph4.0 kmh 29.90 in1012.5 mb 0.00 in0.0 mm 0.00 in0.0 mm 0.00 in0.0 mm
12:49 PM 57.0°F13.9°C 46.2°F7.9°C 67% 9.6 mph S15.4 kmh S 9.8 mph15.8 kmh 29.90 in1012.5 mb 0.00 in0.0 mm 0.00 in0.0 mm 0.00 in0.0 mm
12:54 PM 57.6°F14.2°C 45.9°F7.7°C 65% 4.3 mph SSW6.9 kmh SSW 7.4 mph11.9 kmh 29.90 in1012.5 mb 0.00 in0.0 mm 0.00 in0.0 mm 0.00 in0.0 mm
12:59 PM 57.9°F14.4°C 46.2°F7.9°C 65% 3.6 mph SE5.8 kmh SE 4.9 mph7.9 kmh 29.90 in1012.5 mb 0.00 in0.0 mm 0.00 in0.0 mm 0.00 in0.0 mm
01:04 PM 58.5°F14.7°C 46.4°F8.0°C 64% 7.2 mph S11.6 kmh S 9.8 mph15.8 kmh 29.90 in1012.5 mb 0.00 in0.0 mm 0.00 in0.0 mm 0.00 in0.0 mm
01:09 PM 58.6°F14.8°C 45.7°F7.6°C 62% 4.5 mph WSW7.2 kmh WSW 4.9 mph7.9 kmh 29.91 in1012.9 mb 0.00 in0.0 mm 0.00 in0.0 mm 0.00 in0.0 mm
01:14 PM 58.8°F14.9°C 45.9°F7.7°C 62% 2.7 mph NE4.3 kmh NE 4.9 mph7.9 kmh 29.90 in1012.5 mb 0.00 in0.0 mm 0.00 in0.0 mm 0.00 in0.0 mm
01:19 PM 59.2°F15.1°C 46.6°F8.1°C 63% 2.9 mph SSW4.7 kmh SSW 4.9 mph7.9 kmh 29.90 in1012.5 mb 0.00 in0.0 mm 0.00 in0.0 mm 0.00 in0.0 mm
01:24 PM 59.7°F15.4°C 46.8°F8.2°C 62% 0.4 mph ESE0.6 kmh ESE 2.5 mph4.0 kmh 29.90 in1012.5 mb 0.00 in0.0 mm 0.00 in0.0 mm 0.00 in0.0 mm
01:29 PM 60.3°F15.7°C 46.8°F8.2°C 61% 4.9 mph E7.9 kmh E 7.4 mph11.9 kmh 29.89 in1012.2 mb 0.00 in0.0 mm 0.00 in0.0 mm 0.00 in0.0 mm
01:34 PM 60.6°F15.9°C 47.1°F8.4°C 61% 5.6 mph ESE9.0 kmh ESE 7.4 mph11.9 kmh 29.89 in1012.2 mb 0.00 in0.0 mm 0.00 in0.0 mm 0.00 in0.0 mm
01:39 PM 61.0°F16.1°C 46.6°F8.1°C 59% 4.3 mph SSE6.9 kmh SSE 4.9 mph7.9 kmh 29.88 in1011.9 mb 0.00 in0.0 mm 0.00 in0.0 mm 0.00 in0.0 mm
01:44 PM 61.3°F16.3°C 46.0°F7.8°C 57% 4.9 mph SSE7.9 kmh SSE 7.4 mph11.9 kmh 29.88 in1011.9 mb 0.00 in0.0 mm 0.00 in0.0 mm 0.00 in0.0 mm
01:49 PM 61.9°F16.6°C 42.1°F5.6°C 48% 2.9 mph SE4.7 kmh SE 4.9 mph7.9 kmh 29.87 in1011.5 mb 0.00 in0.0 mm 0.00 in0.0 mm 0.00 in0.0 mm
01:54 PM 62.2°F16.8°C 40.1°F4.5°C 44% 4.9 mph S7.9 kmh S 7.4 mph11.9 kmh 29.87 in1011.5 mb 0.00 in0.0 mm 0.00 in0.0 mm 0.00 in0.0 mm
01:59 PM 62.6°F17.0°C 39.9°F4.4°C 43% 3.6 mph SW5.8 kmh SW 7.4 mph11.9 kmh 29.86 in1011.2 mb 0.00 in0.0 mm 0.00 in0.0 mm 0.00 in0.0 mm
02:04 PM 62.8°F17.1°C 39.9°F4.4°C 43% 5.6 mph SE9.0 kmh SE 7.4 mph11.9 kmh 29.85 in1010.8 mb 0.00 in0.0 mm 0.00 in0.0 mm 0.00 in0.0 mm
02:09 PM 63.1°F17.3°C 41.0°F5.0°C 44% 3.4 mph E5.5 kmh E 7.4 mph11.9 kmh 29.85 in1010.8 mb 0.00 in0.0 mm 0.00 in0.0 mm 0.00 in0.0 mm
02:14 PM 63.3°F17.4°C 41.0°F5.0°C 44% 3.4 mph NW5.5 kmh NW 4.9 mph7.9 kmh 29.85 in1010.8 mb 0.00 in0.0 mm 0.00 in0.0 mm 0.00 in0.0 mm
02:19 PM 63.3°F17.4°C 41.0°F5.0°C 44% 2.5 mph ESE4.0 kmh ESE 4.9 mph7.9 kmh 29.85 in1010.8 mb 0.00 in0.0 mm 0.00 in0.0 mm 0.00 in0.0 mm
02:24 PM 63.7°F17.6°C 40.3°F4.6°C 42% 2.9 mph S4.7 kmh S 4.9 mph7.9 kmh 29.84 in1010.5 mb 0.00 in0.0 mm 0.00 in0.0 mm 0.00 in0.0 mm
02:29 PM 64.0°F17.8°C 39.9°F4.4°C 41% 2.7 mph E4.3 kmh E 4.9 mph7.9 kmh 29.83 in1010.2 mb 0.00 in0.0 mm 0.00 in0.0 mm 0.00 in0.0 mm
02:34 PM 64.2°F17.9°C 40.6°F4.8°C 42% 2.5 mph E4.0 kmh E 4.9 mph7.9 kmh 29.83 in1010.2 mb 0.00 in0.0 mm 0.00 in0.0 mm 0.00 in0.0 mm
02:39 PM 64.4°F18.0°C 42.1°F5.6°C 44% 2.0 mph ESE3.2 kmh ESE 4.9 mph7.9 kmh 29.83 in1010.2 mb 0.00 in0.0 mm 0.00 in0.0 mm 0.00 in0.0 mm
02:44 PM 64.8°F18.2°C 42.4°F5.8°C 44% 3.6 mph ESE5.8 kmh ESE 4.9 mph7.9 kmh 29.82 in1009.8 mb 0.00 in0.0 mm 0.00 in0.0 mm 0.00 in0.0 mm
02:49 PM 64.9°F18.3°C 41.9°F5.5°C 43% 3.4 mph ESE5.5 kmh ESE 4.9 mph7.9 kmh 29.82 in1009.8 mb 0.00 in0.0 mm 0.00 in0.0 mm 0.00 in0.0 mm
02:54 PM 65.1°F18.4°C 40.8°F4.9°C 41% 7.4 mph SSW11.9 kmh SSW 9.8 mph15.8 kmh 29.81 in1009.5 mb 0.00 in0.0 mm 0.00 in0.0 mm 0.00 in0.0 mm
02:59 PM 65.3°F18.5°C 40.5°F4.7°C 40% 2.5 mph S4.0 kmh S 4.9 mph7.9 kmh 29.81 in1009.5 mb 0.00 in0.0 mm 0.00 in0.0 mm 0.00 in0.0 mm
03:04 PM 65.7°F18.7°C 39.4°F4.1°C 38% 8.1 mph SW13.0 kmh SW 9.8 mph15.8 kmh 29.81 in1009.5 mb 0.00 in0.0 mm 0.00 in0.0 mm 0.00 in0.0 mm
03:09 PM 65.8°F18.8°C 39.6°F4.2°C 38% 9.2 mph S14.8 kmh S 12.3 mph19.8 kmh 29.80 in1009.1 mb 0.00 in0.0 mm 0.00 in0.0 mm 0.00 in0.0 mm
03:14 PM 66.0°F18.9°C 39.0°F3.9°C 37% 5.1 mph SE8.2 kmh SE 7.4 mph11.9 kmh 29.81 in1009.5 mb 0.00 in0.0 mm 0.00 in0.0 mm 0.00 in0.0 mm
03:19 PM 66.4°F19.1°C 40.1°F4.5°C 38% 2.7 mph SSW4.3 kmh SSW 4.9 mph7.9 kmh 29.80 in1009.1 mb 0.00 in0.0 mm 0.00 in0.0 mm 0.00 in0.0 mm
03:24 PM 66.7°F19.3°C 40.5°F4.7°C 38% 5.1 mph WSW8.2 kmh WSW 7.4 mph11.9 kmh 29.80 in1009.1 mb 0.00 in0.0 mm 0.00 in0.0 mm 0.00 in0.0 mm
03:29 PM 66.9°F19.4°C 39.9°F4.4°C 37% 3.6 mph WSW5.8 kmh WSW 9.8 mph15.8 kmh 29.80 in1009.1 mb 0.00 in0.0 mm 0.00 in0.0 mm 0.00 in0.0 mm
03:34 PM 66.9°F19.4°C 39.2°F4.0°C 36% 2.7 mph ENE4.3 kmh ENE 4.9 mph7.9 kmh 29.79 in1008.8 mb 0.00 in0.0 mm 0.00 in0.0 mm 0.00 in0.0 mm
03:39 PM 67.1°F19.5°C 39.9°F4.4°C 37% 2.5 mph SE4.0 kmh SE 2.5 mph4.0 kmh 29.80 in1009.1 mb 0.00 in0.0 mm 0.00 in0.0 mm 0.00 in0.0 mm
03:44 PM 67.3°F19.6°C 39.4°F4.1°C 36% 4.9 mph S7.9 kmh S 7.4 mph11.9 kmh 29.79 in1008.8 mb 0.00 in0.0 mm 0.00 in0.0 mm 0.00 in0.0 mm
03:49 PM 67.3°F19.6°C 40.1°F4.5°C 37% 2.7 mph S4.3 kmh S 4.9 mph7.9 kmh 29.78 in1008.5 mb 0.00 in0.0 mm 0.00 in0.0 mm 0.00 in0.0 mm
03:54 PM 67.3°F19.6°C 40.1°F4.5°C 37% 6.7 mph WSW10.8 kmh WSW 7.4 mph11.9 kmh 29.78 in1008.5 mb 0.00 in0.0 mm 0.00 in0.0 mm 0.00 in0.0 mm
03:59 PM 67.3°F19.6°C 39.4°F4.1°C 36% 3.6 mph E5.8 kmh E 4.9 mph7.9 kmh 29.78 in1008.5 mb 0.00 in0.0 mm 0.00 in0.0 mm 0.00 in0.0 mm
04:04 PM 67.3°F19.6°C 40.1°F4.5°C 37% 2.7 mph E4.3 kmh E 4.9 mph7.9 kmh 29.78 in1008.5 mb 0.00 in0.0 mm 0.00 in0.0 mm 0.00 in0.0 mm
04:09 PM 67.5°F19.7°C 40.3°F4.6°C 37% 1.1 mph SE1.8 kmh SE 2.5 mph4.0 kmh 29.78 in1008.5 mb 0.00 in0.0 mm 0.00 in0.0 mm 0.00 in0.0 mm
04:14 PM 67.6°F19.8°C 39.0°F3.9°C 35% 4.0 mph ENE6.4 kmh ENE 7.4 mph11.9 kmh 29.77 in1008.1 mb 0.00 in0.0 mm 0.00 in0.0 mm 0.00 in0.0 mm
04:19 PM 67.6°F19.8°C 39.0°F3.9°C 35% 3.4 mph ESE5.5 kmh ESE 4.9 mph7.9 kmh 29.77 in1008.1 mb 0.00 in0.0 mm 0.00 in0.0 mm 0.00 in0.0 mm
04:24 PM 67.8°F19.9°C 39.2°F4.0°C 35% 5.6 mph E9.0 kmh E 7.4 mph11.9 kmh 29.77 in1008.1 mb 0.00 in0.0 mm 0.00 in0.0 mm 0.00 in0.0 mm
04:29 PM 67.8°F19.9°C 39.9°F4.4°C 36% 0.4 mph E0.6 kmh E 2.5 mph4.0 kmh 29.76 in1007.8 mb 0.00 in0.0 mm 0.00 in0.0 mm 0.00 in0.0 mm
04:34 PM 68.0°F20.0°C 38.7°F3.7°C 34% 6.5 mph S10.5 kmh S 9.8 mph15.8 kmh 29.77 in1008.1 mb 0.00 in0.0 mm 0.00 in0.0 mm 0.00 in0.0 mm
04:39 PM 68.2°F20.1°C 40.3°F4.6°C 36% 0.9 mph WSW1.4 kmh WSW 2.5 mph4.0 kmh 29.76 in1007.8 mb 0.00 in0.0 mm 0.00 in0.0 mm 0.00 in0.0 mm
04:44 PM 68.4°F20.2°C 40.5°F4.7°C 36% 12.8 mph S20.6 kmh S 15.0 mph24.1 kmh 29.76 in1007.8 mb 0.00 in0.0 mm 0.00 in0.0 mm 0.00 in0.0 mm
04:49 PM 68.5°F20.3°C 41.4°F5.2°C 37% 1.8 mph SE2.9 kmh SE 2.5 mph4.0 kmh 29.76 in1007.8 mb 0.00 in0.0 mm 0.00 in0.0 mm 0.00 in0.0 mm
04:54 PM 68.7°F20.4°C 40.1°F4.5°C 35% 6.5 mph SE10.5 kmh SE 7.4 mph11.9 kmh 29.76 in1007.8 mb 0.00 in0.0 mm 0.00 in0.0 mm 0.00 in0.0 mm
04:59 PM 68.9°F20.5°C 41.5°F5.3°C 37% 0.9 mph S1.4 kmh S 2.5 mph4.0 kmh 29.76 in1007.8 mb 0.00 in0.0 mm 0.00 in0.0 mm 0.00 in0.0 mm
05:04 PM 68.7°F20.4°C 41.4°F5.2°C 37% 1.8 mph E2.9 kmh E 2.5 mph4.0 kmh 29.76 in1007.8 mb 0.00 in0.0 mm 0.00 in0.0 mm 0.00 in0.0 mm
05:09 PM 68.7°F20.4°C 41.4°F5.2°C 37% 0.2 mph E0.3 kmh E 2.5 mph4.0 kmh 29.76 in1007.8 mb 0.00 in0.0 mm 0.00 in0.0 mm 0.00 in0.0 mm
05:14 PM 68.5°F20.3°C 41.9°F5.5°C 38% 2.5 mph ESE4.0 kmh ESE 4.9 mph7.9 kmh 29.76 in1007.8 mb 0.00 in0.0 mm 0.00 in0.0 mm 0.00 in0.0 mm
05:19 PM 68.4°F20.2°C 41.9°F5.5°C 38% 1.3 mph NE2.1 kmh NE 2.5 mph4.0 kmh 29.76 in1007.8 mb 0.00 in0.0 mm 0.00 in0.0 mm 0.00 in0.0 mm
05:24 PM 68.4°F20.2°C 41.2°F5.1°C 37% 4.0 mph SW6.4 kmh SW 4.9 mph7.9 kmh 29.76 in1007.8 mb 0.00 in0.0 mm 0.00 in0.0 mm 0.00 in0.0 mm
05:29 PM 68.2°F20.1°C 41.0°F5.0°C 37% 4.0 mph ESE6.4 kmh ESE 4.9 mph7.9 kmh 29.76 in1007.8 mb 0.00 in0.0 mm 0.00 in0.0 mm 0.00 in0.0 mm
05:34 PM 68.0°F20.0°C 40.8°F4.9°C 37% 4.3 mph NE6.9 kmh NE 7.4 mph11.9 kmh 29.75 in1007.5 mb 0.00 in0.0 mm 0.00 in0.0 mm 0.00 in0.0 mm
05:39 PM 67.6°F19.8°C 41.2°F5.1°C 38% 5.6 mph ESE9.0 kmh ESE 7.4 mph11.9 kmh 29.75 in1007.5 mb 0.00 in0.0 mm 0.00 in0.0 mm 0.00 in0.0 mm
05:44 PM 67.5°F19.7°C 41.7°F5.4°C 39% 1.3 mph NW2.1 kmh NW 2.5 mph4.0 kmh 29.75 in1007.5 mb 0.00 in0.0 mm 0.00 in0.0 mm 0.00 in0.0 mm
05:49 PM 67.5°F19.7°C 40.3°F4.6°C 37% 1.8 mph N2.9 kmh N 2.5 mph4.0 kmh 29.75 in1007.5 mb 0.00 in0.0 mm 0.00 in0.0 mm 0.00 in0.0 mm
05:54 PM 67.3°F19.6°C 40.8°F4.9°C 38% 4.9 mph S7.9 kmh S 7.4 mph11.9 kmh 29.75 in1007.5 mb 0.00 in0.0 mm 0.00 in0.0 mm 0.00 in0.0 mm
05:59 PM 67.3°F19.6°C 40.1°F4.5°C 37% 7.4 mph S11.9 kmh S 7.4 mph11.9 kmh 29.75 in1007.5 mb 0.00 in0.0 mm 0.00 in0.0 mm 0.00 in0.0 mm
06:04 PM 67.1°F19.5°C 41.4°F5.2°C 39% 4.5 mph S7.2 kmh S 7.4 mph11.9 kmh 29.75 in1007.5 mb 0.00 in0.0 mm 0.00 in0.0 mm 0.00 in0.0 mm
06:09 PM 66.9°F19.4°C 41.9°F5.5°C 40% 1.3 mph E2.1 kmh E 4.9 mph7.9 kmh 29.75 in1007.5 mb 0.00 in0.0 mm 0.00 in0.0 mm 0.00 in0.0 mm
06:14 PM 66.9°F19.4°C 42.4°F5.8°C 41% 0.4 mph E0.6 kmh E 2.5 mph4.0 kmh 29.75 in1007.5 mb 0.00 in0.0 mm 0.00 in0.0 mm 0.00 in0.0 mm
06:19 PM 66.6°F19.2°C 42.3°F5.7°C 41% 1.8 mph ENE2.9 kmh ENE 2.5 mph4.0 kmh 29.75 in1007.5 mb 0.00 in0.0 mm 0.00 in0.0 mm 0.00 in0.0 mm
06:24 PM 66.2°F19.0°C 42.4°F5.8°C 42% 2.0 mph E3.2 kmh E 4.9 mph7.9 kmh 29.74 in1007.1 mb 0.00 in0.0 mm 0.00 in0.0 mm 0.00 in0.0 mm
06:29 PM 65.8°F18.8°C 42.8°F6.0°C 43% 2.5 mph E4.0 kmh E 2.5 mph4.0 kmh 29.75 in1007.5 mb 0.00 in0.0 mm 0.00 in0.0 mm 0.00 in0.0 mm
06:34 PM 65.5°F18.6°C 43.0°F6.1°C 44% 2.9 mph E4.7 kmh E 4.9 mph7.9 kmh 29.74 in1007.1 mb 0.00 in0.0 mm 0.00 in0.0 mm 0.00 in0.0 mm
06:39 PM 65.1°F18.4°C 43.3°F6.3°C 45% 3.4 mph ENE5.5 kmh ENE 4.9 mph7.9 kmh 29.74 in1007.1 mb 0.00 in0.0 mm 0.00 in0.0 mm 0.00 in0.0 mm
06:44 PM 64.6°F18.1°C 43.3°F6.3°C 46% 2.7 mph SW4.3 kmh SW 4.9 mph7.9 kmh 29.74 in1007.1 mb 0.00 in0.0 mm 0.00 in0.0 mm 0.00 in0.0 mm
06:49 PM 64.2°F17.9°C 43.7°F6.5°C 47% 5.1 mph ENE8.2 kmh ENE 7.4 mph11.9 kmh 29.74 in1007.1 mb 0.00 in0.0 mm 0.00 in0.0 mm 0.00 in0.0 mm
06:54 PM 63.7°F17.6°C 43.7°F6.5°C 48% 1.8 mph E2.9 kmh E 4.9 mph7.9 kmh 29.74 in1007.1 mb 0.00 in0.0 mm 0.00 in0.0 mm 0.00 in0.0 mm
06:59 PM 63.1°F17.3°C 43.7°F6.5°C 49% Calm Calm -- 29.74 in1007.1 mb 0.00 in0.0 mm 0.00 in0.0 mm 0.00 in0.0 mm
07:04 PM 62.6°F17.0°C 43.7°F6.5°C 50% 2.7 mph NE4.3 kmh NE 4.9 mph7.9 kmh 29.73 in1006.8 mb 0.00 in0.0 mm 0.00 in0.0 mm 0.00 in0.0 mm
07:09 PM 62.1°F16.7°C 43.7°F6.5°C 51% 6.7 mph SE10.8 kmh SE 9.8 mph15.8 kmh 29.73 in1006.8 mb 0.00 in0.0 mm 0.00 in0.0 mm 0.00 in0.0 mm
07:14 PM 61.7°F16.5°C 43.9°F6.6°C 52% 0.9 mph ENE1.4 kmh ENE 2.5 mph4.0 kmh 29.73 in1006.8 mb 0.00 in0.0 mm 0.00 in0.0 mm 0.00 in0.0 mm
07:19 PM 61.3°F16.3°C 44.1°F6.7°C 53% 0.4 mph ESE0.6 kmh ESE 2.5 mph4.0 kmh 29.73 in1006.8 mb 0.00 in0.0 mm 0.00 in0.0 mm 0.00 in0.0 mm
07:24 PM 61.0°F16.1°C 44.2°F6.8°C 54% 0.4 mph ESE0.6 kmh ESE 2.5 mph4.0 kmh 29.73 in1006.8 mb 0.00 in0.0 mm 0.00 in0.0 mm 0.00 in0.0 mm
07:29 PM 60.6°F15.9°C 44.4°F6.9°C 55% 0.4 mph SE0.6 kmh SE 2.5 mph4.0 kmh 29.73 in1006.8 mb 0.00 in0.0 mm 0.00 in0.0 mm 0.00 in0.0 mm
07:34 PM 60.4°F15.8°C 44.2°F6.8°C 55% 1.1 mph E1.8 kmh E 2.5 mph4.0 kmh 29.73 in1006.8 mb 0.00 in0.0 mm 0.00 in0.0 mm 0.00 in0.0 mm
07:39 PM 60.3°F15.7°C 44.6°F7.0°C 56% 2.5 mph SE4.0 kmh SE 4.9 mph7.9 kmh 29.72 in1006.4 mb 0.00 in0.0 mm 0.00 in0.0 mm 0.00 in0.0 mm
07:44 PM 59.9°F15.5°C 44.6°F7.0°C 57% 3.6 mph E5.8 kmh E 4.9 mph7.9 kmh 29.73 in1006.8 mb 0.00 in0.0 mm 0.00 in0.0 mm 0.00 in0.0 mm
07:49 PM 59.7°F15.4°C 44.4°F6.9°C 57% 1.3 mph NE2.1 kmh NE 2.5 mph4.0 kmh 29.73 in1006.8 mb 0.00 in0.0 mm 0.00 in0.0 mm 0.00 in0.0 mm
07:54 PM 59.4°F15.2°C 44.6°F7.0°C 58% 0.2 mph E0.3 kmh E 2.5 mph4.0 kmh 29.73 in1006.8 mb 0.00 in0.0 mm 0.00 in0.0 mm 0.00 in0.0 mm
07:59 PM 59.2°F15.1°C 44.4°F6.9°C 58% 2.7 mph E4.3 kmh E 4.9 mph7.9 kmh 29.73 in1006.8 mb 0.00 in0.0 mm 0.00 in0.0 mm 0.00 in0.0 mm
08:04 PM 59.2°F15.1°C 45.0°F7.2°C 59% 2.0 mph E3.2 kmh E 2.5 mph4.0 kmh 29.73 in1006.8 mb 0.00 in0.0 mm 0.00 in0.0 mm 0.00 in0.0 mm
08:09 PM 59.0°F15.0°C 44.8°F7.1°C 59% 4.0 mph ENE6.4 kmh ENE 4.9 mph7.9 kmh 29.73 in1006.8 mb 0.00 in0.0 mm 0.00 in0.0 mm 0.00 in0.0 mm
08:14 PM 58.8°F14.9°C 45.0°F7.2°C 60% 5.1 mph SE8.2 kmh SE 7.4 mph11.9 kmh 29.73 in1006.8 mb 0.00 in0.0 mm 0.00 in0.0 mm 0.00 in0.0 mm
08:19 PM 58.6°F14.8°C 44.8°F7.1°C 60% 3.6 mph SE5.8 kmh SE 4.9 mph7.9 kmh 29.73 in1006.8 mb 0.00 in0.0 mm 0.00 in0.0 mm 0.00 in0.0 mm
08:24 PM 58.5°F14.7°C 45.1°F7.3°C 61% 2.7 mph S4.3 kmh S 4.9 mph7.9 kmh 29.73 in1006.8 mb 0.00 in0.0 mm 0.00 in0.0 mm 0.00 in0.0 mm
08:29 PM 58.5°F14.7°C 45.1°F7.3°C 61% 3.6 mph E5.8 kmh E 7.4 mph11.9 kmh 29.73 in1006.8 mb 0.00 in0.0 mm 0.00 in0.0 mm 0.00 in0.0 mm
08:34 PM 58.3°F14.6°C 45.3°F7.4°C 62% 3.6 mph W5.8 kmh W 7.4 mph11.9 kmh 29.73 in1006.8 mb 0.00 in0.0 mm 0.00 in0.0 mm 0.00 in0.0 mm
08:39 PM 58.3°F14.6°C 45.3°F7.4°C 62% 1.3 mph E2.1 kmh E 2.5 mph4.0 kmh 29.74 in1007.1 mb 0.00 in0.0 mm 0.00 in0.0 mm 0.00 in0.0 mm
08:44 PM 58.1°F14.5°C 45.7°F7.6°C 63% 2.0 mph E3.2 kmh E 2.5 mph4.0 kmh 29.74 in1007.1 mb 0.00 in0.0 mm 0.00 in0.0 mm 0.00 in0.0 mm
08:49 PM 58.1°F14.5°C 45.7°F7.6°C 63% 2.5 mph SE4.0 kmh SE 4.9 mph7.9 kmh 29.74 in1007.1 mb 0.00 in0.0 mm 0.00 in0.0 mm 0.00 in0.0 mm
08:54 PM 58.1°F14.5°C 45.7°F7.6°C 63% 1.1 mph ESE1.8 kmh ESE 2.5 mph4.0 kmh 29.73 in1006.8 mb 0.00 in0.0 mm 0.00 in0.0 mm 0.00 in0.0 mm
08:59 PM 57.9°F14.4°C 45.9°F7.7°C 64% 2.7 mph E4.3 kmh E 4.9 mph7.9 kmh 29.74 in1007.1 mb 0.00 in0.0 mm 0.00 in0.0 mm 0.00 in0.0 mm
09:04 PM 57.9°F14.4°C 46.2°F7.9°C 65% Calm Calm -- 29.74 in1007.1 mb 0.00 in0.0 mm 0.00 in0.0 mm 0.00 in0.0 mm
09:09 PM 57.7°F14.3°C 46.0°F7.8°C 65% 0.9 mph SSW1.4 kmh SSW 2.5 mph4.0 kmh 29.73 in1006.8 mb 0.00 in0.0 mm 0.00 in0.0 mm 0.00 in0.0 mm
09:14 PM 57.6°F14.2°C 45.9°F7.7°C 65% 2.0 mph ENE3.2 kmh ENE 2.5 mph4.0 kmh 29.73 in1006.8 mb 0.00 in0.0 mm 0.00 in0.0 mm 0.00 in0.0 mm
09:19 PM 57.4°F14.1°C 46.2°F7.9°C 66% 0.2 mph ENE0.3 kmh ENE 2.5 mph4.0 kmh 29.74 in1007.1 mb 0.00 in0.0 mm 0.00 in0.0 mm 0.00 in0.0 mm
09:24 PM 57.2°F14.0°C 46.0°F7.8°C 66% 0.4 mph E0.6 kmh E 2.5 mph4.0 kmh 29.73 in1006.8 mb 0.00 in0.0 mm 0.00 in0.0 mm 0.00 in0.0 mm
09:29 PM 57.0°F13.9°C 46.2°F7.9°C 67% 3.6 mph SE5.8 kmh SE 4.9 mph7.9 kmh 29.74 in1007.1 mb 0.00 in0.0 mm 0.00 in0.0 mm 0.00 in0.0 mm
09:34 PM 56.8°F13.8°C 46.0°F7.8°C 67% 1.3 mph NE2.1 kmh NE 2.5 mph4.0 kmh 29.73 in1006.8 mb 0.00 in0.0 mm 0.00 in0.0 mm 0.00 in0.0 mm
09:39 PM 56.7°F13.7°C 46.2°F7.9°C 68% 2.5 mph SE4.0 kmh SE 4.9 mph7.9 kmh 29.74 in1007.1 mb 0.00 in0.0 mm 0.00 in0.0 mm 0.00 in0.0 mm
09:44 PM 56.5°F13.6°C 46.0°F7.8°C 68% 2.7 mph SSW4.3 kmh SSW 4.9 mph7.9 kmh 29.74 in1007.1 mb 0.00 in0.0 mm 0.00 in0.0 mm 0.00 in0.0 mm
09:49 PM 56.5°F13.6°C 46.4°F8.0°C 69% 2.0 mph ESE3.2 kmh ESE 2.5 mph4.0 kmh 29.75 in1007.5 mb 0.00 in0.0 mm 0.00 in0.0 mm 0.00 in0.0 mm
09:54 PM 56.3°F13.5°C 46.2°F7.9°C 69% 0.9 mph SE1.4 kmh SE 2.5 mph4.0 kmh 29.74 in1007.1 mb 0.00 in0.0 mm 0.00 in0.0 mm 0.00 in0.0 mm
09:59 PM 56.3°F13.5°C 46.8°F8.2°C 70% 2.5 mph SE4.0 kmh SE 2.5 mph4.0 kmh 29.74 in1007.1 mb 0.00 in0.0 mm 0.00 in0.0 mm 0.00 in0.0 mm
10:04 PM 56.1°F13.4°C 46.6°F8.1°C 70% Calm Calm -- 29.74 in1007.1 mb 0.00 in0.0 mm 0.00 in0.0 mm 0.00 in0.0 mm
10:09 PM 56.1°F13.4°C 46.6°F8.1°C 70% 1.1 mph E1.8 kmh E 2.5 mph4.0 kmh 29.74 in1007.1 mb 0.00 in0.0 mm 0.00 in0.0 mm 0.00 in0.0 mm
10:14 PM 55.9°F13.3°C 46.8°F8.2°C 71% 0.2 mph SE0.3 kmh SE 2.5 mph4.0 kmh 29.74 in1007.1 mb 0.00 in0.0 mm 0.00 in0.0 mm 0.00 in0.0 mm
10:19 PM 55.9°F13.3°C 46.8°F8.2°C 71% 2.5 mph ESE4.0 kmh ESE 4.9 mph7.9 kmh 29.74 in1007.1 mb 0.00 in0.0 mm 0.00 in0.0 mm 0.00 in0.0 mm
10:24 PM 55.8°F13.2°C 46.6°F8.1°C 71% Calm Calm -- 29.73 in1006.8 mb 0.00 in0.0 mm 0.00 in0.0 mm 0.00 in0.0 mm
10:29 PM 55.8°F13.2°C 46.6°F8.1°C 71% 1.3 mph SE2.1 kmh SE 2.5 mph4.0 kmh 29.72 in1006.4 mb 0.00 in0.0 mm 0.00 in0.0 mm 0.00 in0.0 mm
10:34 PM 55.6°F13.1°C 46.8°F8.2°C 72% 1.8 mph E2.9 kmh E 2.5 mph4.0 kmh 29.72 in1006.4 mb 0.00 in0.0 mm 0.00 in0.0 mm 0.00 in0.0 mm
10:39 PM 55.6°F13.1°C 46.8°F8.2°C 72% 0.9 mph ESE1.4 kmh ESE 2.5 mph4.0 kmh 29.72 in1006.4 mb 0.00 in0.0 mm 0.00 in0.0 mm 0.00 in0.0 mm
10:44 PM 55.4°F13.0°C 46.6°F8.1°C 72% 1.1 mph E1.8 kmh E 2.5 mph4.0 kmh 29.72 in1006.4 mb 0.00 in0.0 mm 0.00 in0.0 mm 0.00 in0.0 mm
10:49 PM 55.4°F13.0°C 46.6°F8.1°C 72% 0.9 mph S1.4 kmh S 2.5 mph4.0 kmh 29.72 in1006.4 mb 0.00 in0.0 mm 0.00 in0.0 mm 0.00 in0.0 mm
10:54 PM 55.4°F13.0°C 46.6°F8.1°C 72% 0.2 mph E0.3 kmh E 2.5 mph4.0 kmh 29.72 in1006.4 mb 0.00 in0.0 mm 0.00 in0.0 mm 0.00 in0.0 mm
10:59 PM 55.2°F12.9°C 46.8°F8.2°C 73% 1.1 mph E1.8 kmh E 2.5 mph4.0 kmh 29.72 in1006.4 mb 0.00 in0.0 mm 0.00 in0.0 mm 0.00 in0.0 mm
11:04 PM 55.2°F12.9°C 46.8°F8.2°C 73% 0.9 mph SE1.4 kmh SE 2.5 mph4.0 kmh 29.72 in1006.4 mb 0.00 in0.0 mm 0.00 in0.0 mm 0.00 in0.0 mm
11:09 PM 55.0°F12.8°C 46.6°F8.1°C 73% 5.6 mph SSW9.0 kmh SSW 7.4 mph11.9 kmh 29.72 in1006.4 mb 0.00 in0.0 mm 0.00 in0.0 mm 0.00 in0.0 mm
11:14 PM 54.9°F12.7°C 46.4°F8.0°C 73% 0.2 mph NNE0.3 kmh NNE 2.5 mph4.0 kmh 29.72 in1006.4 mb 0.00 in0.0 mm 0.00 in0.0 mm 0.00 in0.0 mm
11:19 PM 54.9°F12.7°C 46.8°F8.2°C 74% 0.4 mph E0.6 kmh E 2.5 mph4.0 kmh 29.72 in1006.4 mb 0.00 in0.0 mm 0.00 in0.0 mm 0.00 in0.0 mm
11:24 PM 54.9°F12.7°C 46.8°F8.2°C 74% 2.7 mph NE4.3 kmh NE 4.9 mph7.9 kmh 29.72 in1006.4 mb 0.00 in0.0 mm 0.00 in0.0 mm 0.00 in0.0 mm
11:29 PM 54.7°F12.6°C 46.6°F8.1°C 74% 3.4 mph E5.5 kmh E 4.9 mph7.9 kmh 29.72 in1006.4 mb 0.00 in0.0 mm 0.00 in0.0 mm 0.00 in0.0 mm
11:34 PM 54.7°F12.6°C 46.6°F8.1°C 74% 6.7 mph E10.8 kmh E 9.8 mph15.8 kmh 29.72 in1006.4 mb 0.00 in0.0 mm 0.00 in0.0 mm 0.00 in0.0 mm
11:39 PM 54.7°F12.6°C 46.6°F8.1°C 74% 2.0 mph SE3.2 kmh SE 4.9 mph7.9 kmh 29.71 in1006.1 mb 0.00 in0.0 mm 0.00 in0.0 mm 0.00 in0.0 mm
11:44 PM 54.7°F12.6°C 46.6°F8.1°C 74% Calm Calm -- 29.72 in1006.4 mb 0.00 in0.0 mm 0.00 in0.0 mm 0.00 in0.0 mm
11:49 PM 54.7°F12.6°C 46.6°F8.1°C 74% Calm Calm -- 29.72 in1006.4 mb 0.00 in0.0 mm 0.00 in0.0 mm 0.00 in0.0 mm
11:54 PM 54.5°F12.5°C 46.4°F8.0°C 74% 0.2 mph ESE0.3 kmh ESE 2.5 mph4.0 kmh 29.72 in1006.4 mb 0.00 in0.0 mm 0.00 in0.0 mm 0.00 in0.0 mm
11:59 PM 54.7°F12.6°C 46.6°F8.1°C 74% 1.3 mph S2.1 kmh S 2.5 mph4.0 kmh 29.72 in1006.4 mb 0.00 in0.0 mm 0.00 in0.0 mm 0.00 in0.0 mm